createdAt,value
2022-08-31T00:01:49.100Z,14.40
2022-08-31T00:04:21.176Z,14.40
2022-08-31T00:06:51.417Z,14.40
2022-08-31T00:09:23.599Z,14.30
2022-08-31T00:11:52.344Z,14.30
2022-08-31T00:14:21.648Z,14.20
2022-08-31T00:16:53.230Z,14.20
2022-08-31T00:19:24.618Z,14.10
2022-08-31T00:21:55.946Z,14.00
2022-08-31T00:24:24.903Z,14.00
2022-08-31T00:26:54.127Z,14.00
2022-08-31T00:29:23.525Z,13.90
2022-08-31T00:31:55.402Z,13.90
2022-08-31T00:34:27.978Z,13.90
2022-08-31T00:37:05.891Z,13.90
2022-08-31T00:39:40.131Z,13.90
2022-08-31T00:42:09.141Z,13.90
2022-08-31T00:44:40.440Z,13.90
2022-08-31T00:47:12.340Z,13.90
2022-08-31T00:49:42.009Z,13.90
2022-08-31T00:52:20.801Z,13.80
2022-08-31T00:54:59.237Z,13.80
2022-08-31T00:57:34.258Z,13.70
2022-08-31T01:00:06.441Z,13.60
2022-08-31T01:02:37.780Z,13.50
2022-08-31T01:05:07.218Z,13.50
2022-08-31T01:07:35.933Z,13.50
2022-08-31T01:10:05.806Z,13.50
2022-08-31T01:12:34.375Z,13.50
2022-08-31T01:15:04.475Z,13.50
2022-08-31T01:17:33.729Z,13.50
2022-08-31T01:20:20.552Z,13.50
2022-08-31T01:22:52.158Z,13.50
2022-08-31T01:25:21.129Z,13.50
2022-08-31T01:27:52.540Z,13.50
2022-08-31T01:30:24.496Z,13.40
2022-08-31T01:32:53.191Z,13.40
2022-08-31T01:35:21.366Z,13.40
2022-08-31T01:37:50.342Z,13.40
2022-08-31T01:40:20.305Z,13.40
2022-08-31T01:42:48.945Z,13.30
2022-08-31T01:45:17.895Z,13.30
2022-08-31T01:47:46.421Z,13.30
2022-08-31T01:50:14.838Z,13.30
2022-08-31T01:52:43.072Z,13.30
2022-08-31T01:55:11.796Z,13.20
2022-08-31T01:57:40.103Z,13.20
2022-08-31T02:00:12.069Z,13.20
2022-08-31T02:02:43.383Z,13.10
2022-08-31T02:05:14.862Z,13.10
2022-08-31T02:07:47.098Z,13.20
2022-08-31T02:10:15.599Z,13.10
2022-08-31T02:12:43.826Z,13.10
2022-08-31T02:15:12.395Z,13.10
2022-08-31T02:17:42.343Z,13.10
2022-08-31T02:20:11.584Z,13.10
2022-08-31T02:22:40.522Z,13.00
2022-08-31T02:25:11.405Z,13.00
2022-08-31T02:27:39.709Z,13.00
2022-08-31T02:30:13.214Z,13.00
2022-08-31T02:32:42.099Z,12.90
2022-08-31T02:35:11.563Z,12.90
2022-08-31T02:37:40.562Z,12.90
2022-08-31T02:40:12.097Z,12.90
2022-08-31T02:42:52.925Z,12.90
2022-08-31T02:45:26.477Z,12.90
2022-08-31T02:48:00.777Z,12.80
2022-08-31T02:50:34.026Z,12.80
2022-08-31T02:53:02.714Z,12.70
2022-08-31T02:55:31.271Z,12.70
2022-08-31T02:58:01.583Z,12.70
2022-08-31T03:00:30.380Z,12.60
2022-08-31T03:02:59.272Z,12.60
2022-08-31T03:05:28.090Z,12.50
2022-08-31T03:07:56.860Z,12.50
2022-08-31T03:10:26.213Z,12.40
2022-08-31T03:12:54.795Z,12.40
2022-08-31T03:15:25.310Z,12.40
2022-08-31T03:17:53.932Z,12.40
2022-08-31T03:20:25.594Z,12.40
2022-08-31T03:22:55.238Z,12.40
2022-08-31T03:25:23.548Z,12.40
2022-08-31T03:27:51.657Z,12.40
2022-08-31T03:30:24.274Z,12.40
2022-08-31T03:33:03.838Z,12.40
2022-08-31T03:35:34.779Z,12.40
2022-08-31T03:38:11.173Z,12.40
2022-08-31T03:40:41.692Z,12.40
2022-08-31T03:43:11.999Z,12.40
2022-08-31T03:45:44.125Z,12.40
2022-08-31T03:48:13.564Z,12.50
2022-08-31T03:50:45.792Z,12.50
2022-08-31T03:53:23.497Z,12.50
2022-08-31T03:56:02.457Z,12.50
2022-08-31T03:58:33.804Z,12.50
2022-08-31T04:01:03.432Z,12.50
2022-08-31T04:03:58.206Z,12.50
2022-08-31T04:06:50.583Z,12.50
2022-08-31T04:09:52.261Z,12.50
2022-08-31T04:12:44.293Z,12.60
2022-08-31T04:15:32.988Z,12.60
2022-08-31T04:18:21.135Z,12.70
2022-08-31T04:20:51.027Z,12.70
2022-08-31T04:23:19.827Z,12.80
2022-08-31T04:25:55.841Z,12.90
2022-08-31T04:28:27.104Z,12.90
2022-08-31T04:30:55.788Z,12.90
2022-08-31T04:33:26.927Z,13.00
2022-08-31T04:35:56.169Z,13.10
2022-08-31T04:38:25.123Z,13.10
2022-08-31T04:40:55.413Z,13.20
2022-08-31T04:43:25.663Z,13.20
2022-08-31T04:46:00.581Z,13.20
2022-08-31T04:48:30.913Z,13.30
2022-08-31T04:51:05.694Z,13.40
2022-08-31T04:53:36.813Z,13.40
2022-08-31T04:56:18.029Z,13.40
2022-08-31T04:58:48.108Z,13.40
2022-08-31T05:01:19.330Z,13.50
2022-08-31T05:04:13.920Z,13.50
2022-08-31T05:06:45.323Z,13.50
2022-08-31T05:09:20.353Z,13.50
2022-08-31T05:11:51.024Z,13.50
2022-08-31T05:14:26.278Z,13.60
2022-08-31T05:17:03.858Z,13.60
2022-08-31T05:19:40.910Z,13.70
2022-08-31T05:22:10.178Z,13.80
2022-08-31T05:24:41.096Z,13.90
2022-08-31T05:27:10.134Z,14.00
2022-08-31T05:29:40.198Z,14.10
2022-08-31T05:32:48.323Z,14.10
2022-08-31T05:35:19.569Z,14.30
2022-08-31T05:37:50.799Z,14.40
2022-08-31T05:40:22.914Z,14.50
2022-08-31T05:42:55.807Z,14.50
2022-08-31T05:45:24.464Z,14.60
2022-08-31T05:47:57.149Z,14.70
2022-08-31T05:50:33.476Z,14.90
2022-08-31T05:53:10.076Z,14.90
2022-08-31T05:55:39.206Z,15.00
2022-08-31T05:58:08.403Z,15.00
2022-08-31T06:00:39.295Z,15.10
2022-08-31T06:03:33.669Z,15.10
2022-08-31T06:06:04.333Z,15.10
2022-08-31T06:08:34.211Z,15.20
2022-08-31T06:11:03.646Z,15.20
2022-08-31T06:13:32.491Z,15.20
2022-08-31T06:16:04.525Z,15.30
2022-08-31T06:18:33.642Z,15.40
2022-08-31T06:21:09.901Z,15.40
2022-08-31T06:23:40.064Z,15.40
2022-08-31T06:26:13.564Z,15.40
2022-08-31T06:28:44.255Z,15.50
2022-08-31T06:31:19.150Z,15.50
2022-08-31T06:33:48.484Z,15.60
2022-08-31T06:36:21.745Z,15.60
2022-08-31T06:39:12.710Z,15.70
2022-08-31T06:41:56.986Z,15.60
2022-08-31T06:44:55.030Z,15.70
2022-08-31T06:47:33.425Z,15.80
2022-08-31T06:50:02.021Z,15.80
2022-08-31T06:52:34.690Z,15.90
2022-08-31T06:55:23.477Z,15.90
2022-08-31T06:58:15.168Z,15.90
2022-08-31T07:01:08.255Z,16.00
2022-08-31T07:04:00.831Z,16.10
2022-08-31T07:06:31.471Z,16.10
2022-08-31T07:09:05.463Z,16.20
2022-08-31T07:11:39.969Z,16.20
2022-08-31T07:14:14.413Z,16.30
2022-08-31T07:16:45.164Z,16.30
2022-08-31T07:19:15.241Z,16.40
2022-08-31T07:21:47.546Z,16.40
2022-08-31T07:24:18.697Z,16.50
2022-08-31T07:26:49.920Z,16.50
2022-08-31T07:29:28.169Z,16.60
2022-08-31T07:31:58.687Z,16.70
2022-08-31T07:34:30.030Z,16.80
2022-08-31T07:37:36.207Z,16.80
2022-08-31T07:40:25.280Z,16.90
2022-08-31T07:42:55.798Z,17.00
2022-08-31T07:45:30.213Z,17.10
2022-08-31T07:48:02.160Z,17.10
2022-08-31T07:50:47.296Z,17.20
2022-08-31T07:53:24.027Z,17.30
2022-08-31T07:55:59.185Z,17.30
2022-08-31T07:58:43.936Z,17.40
2022-08-31T08:01:15.013Z,17.40
2022-08-31T08:03:45.628Z,17.50
2022-08-31T08:06:34.202Z,17.60
2022-08-31T08:09:24.447Z,17.60
2022-08-31T08:12:12.634Z,17.60
2022-08-31T08:14:45.878Z,17.70
2022-08-31T08:17:33.799Z,17.80
2022-08-31T08:20:13.321Z,17.90
2022-08-31T08:22:55.205Z,17.90
2022-08-31T08:25:37.148Z,18.00
2022-08-31T08:28:39.780Z,18.10
2022-08-31T08:31:15.121Z,18.10
2022-08-31T08:33:44.938Z,18.20
2022-08-31T08:36:18.979Z,18.30
2022-08-31T08:38:51.153Z,18.40
2022-08-31T08:41:23.366Z,18.40
2022-08-31T08:43:54.012Z,18.50
2022-08-31T08:46:35.446Z,18.60
2022-08-31T08:49:21.663Z,18.60
2022-08-31T08:51:57.244Z,18.70
2022-08-31T08:54:30.427Z,18.70
2022-08-31T08:57:01.418Z,18.60
2022-08-31T08:59:30.795Z,18.70
2022-08-31T09:02:07.103Z,18.70
2022-08-31T09:05:03.802Z,18.80
2022-08-31T09:07:59.621Z,18.80
2022-08-31T09:10:40.196Z,18.80
2022-08-31T09:13:20.250Z,18.90
2022-08-31T09:15:50.086Z,18.90
2022-08-31T09:18:31.046Z,19.00
2022-08-31T09:21:22.531Z,19.00
2022-08-31T09:24:02.008Z,19.20
2022-08-31T09:26:56.175Z,19.30
2022-08-31T09:29:42.302Z,19.20
2022-08-31T09:32:16.928Z,19.10
2022-08-31T09:34:53.146Z,19.10
2022-08-31T09:37:26.380Z,19.10
2022-08-31T09:39:55.991Z,19.20
2022-08-31T09:42:33.671Z,19.20
2022-08-31T09:45:10.072Z,19.30
2022-08-31T09:47:55.729Z,19.30
2022-08-31T09:50:35.604Z,19.30
2022-08-31T09:53:30.064Z,19.40
2022-08-31T09:56:19.589Z,19.40
2022-08-31T09:58:52.957Z,19.40
2022-08-31T10:01:29.491Z,19.40
2022-08-31T10:04:13.445Z,19.30
2022-08-31T10:07:09.095Z,19.30
2022-08-31T10:09:57.800Z,19.40
2022-08-31T10:12:28.779Z,19.40
2022-08-31T10:15:06.287Z,19.40
2022-08-31T10:17:42.039Z,19.60
2022-08-31T10:20:20.140Z,19.60
2022-08-31T10:22:54.875Z,19.70
2022-08-31T10:25:27.477Z,19.80
2022-08-31T10:28:06.984Z,19.70
2022-08-31T10:30:39.553Z,19.70
2022-08-31T10:33:09.031Z,19.80
2022-08-31T10:35:37.883Z,19.80
2022-08-31T10:38:20.309Z,19.80
2022-08-31T10:41:04.195Z,19.80
2022-08-31T10:43:39.631Z,19.90
2022-08-31T10:46:09.266Z,20.00
2022-08-31T10:48:52.475Z,20.00
2022-08-31T10:51:30.038Z,20.00
2022-08-31T10:54:18.733Z,20.10
2022-08-31T10:57:00.722Z,20.20
2022-08-31T10:59:34.176Z,20.30
2022-08-31T11:02:06.805Z,20.30
2022-08-31T11:04:41.082Z,20.40
2022-08-31T11:07:31.097Z,20.40
2022-08-31T11:10:20.547Z,20.40
2022-08-31T11:13:01.548Z,20.50
2022-08-31T11:15:37.514Z,20.60
2022-08-31T11:18:26.220Z,20.70
2022-08-31T11:21:08.537Z,20.70
2022-08-31T11:23:54.337Z,20.70
2022-08-31T11:26:29.171Z,20.70
2022-08-31T11:29:13.842Z,20.70
2022-08-31T11:31:42.678Z,20.80
2022-08-31T11:34:26.538Z,20.80
2022-08-31T11:37:04.588Z,20.80
2022-08-31T11:39:48.266Z,20.90
2022-08-31T11:42:20.167Z,20.90
2022-08-31T11:45:07.128Z,20.90
2022-08-31T11:47:43.721Z,20.90
2022-08-31T11:50:22.307Z,20.90
2022-08-31T11:52:53.921Z,21.00
2022-08-31T11:55:24.768Z,21.10
2022-08-31T11:58:12.072Z,21.30
2022-08-31T12:01:03.603Z,21.30
2022-08-31T12:03:33.424Z,21.40
2022-08-31T12:06:03.295Z,21.50
2022-08-31T12:08:35.704Z,21.50
2022-08-31T12:11:18.962Z,21.40
2022-08-31T12:14:03.051Z,21.40
2022-08-31T12:16:37.320Z,21.40
2022-08-31T12:19:44.303Z,21.30
2022-08-31T12:22:52.920Z,21.20
2022-08-31T12:25:28.983Z,21.30
2022-08-31T12:28:03.646Z,21.20
2022-08-31T12:30:33.178Z,21.00
2022-08-31T12:33:13.342Z,20.90
2022-08-31T12:35:43.801Z,20.80
2022-08-31T12:38:20.636Z,20.90
2022-08-31T12:40:49.689Z,20.90
2022-08-31T12:43:21.558Z,20.80
2022-08-31T12:45:53.499Z,20.80
2022-08-31T12:48:42.869Z,20.80
2022-08-31T12:51:30.612Z,20.80
2022-08-31T12:54:16.582Z,20.80
2022-08-31T12:57:01.866Z,20.70
2022-08-31T13:00:01.923Z,20.60
2022-08-31T13:02:35.938Z,20.60
2022-08-31T13:05:31.575Z,20.40
2022-08-31T13:08:00.709Z,20.40
2022-08-31T13:10:35.020Z,20.30
2022-08-31T13:13:08.707Z,20.30
2022-08-31T13:15:39.958Z,20.30
2022-08-31T13:18:14.071Z,20.30
2022-08-31T13:20:47.493Z,20.30
2022-08-31T13:23:23.432Z,20.30
2022-08-31T13:26:01.646Z,20.40
2022-08-31T13:28:31.092Z,20.50
2022-08-31T13:31:05.040Z,20.60
2022-08-31T13:33:42.778Z,20.60
2022-08-31T13:36:11.640Z,20.60
2022-08-31T13:38:51.386Z,20.70
2022-08-31T13:41:28.025Z,20.80
2022-08-31T13:43:59.427Z,20.90
2022-08-31T13:46:41.943Z,20.90
2022-08-31T13:49:30.045Z,21.00
2022-08-31T13:51:58.950Z,21.10
2022-08-31T13:54:35.372Z,21.20
2022-08-31T13:57:26.776Z,21.30
2022-08-31T13:59:56.421Z,21.40
2022-08-31T14:02:37.333Z,21.40
2022-08-31T14:05:09.046Z,21.50
2022-08-31T14:07:41.850Z,21.40
2022-08-31T14:10:16.058Z,21.40
2022-08-31T14:12:52.115Z,21.30
2022-08-31T14:15:36.842Z,21.20
2022-08-31T14:18:25.317Z,21.10
2022-08-31T14:21:20.609Z,21.00
2022-08-31T14:23:52.645Z,20.90
2022-08-31T14:26:23.246Z,20.90
2022-08-31T14:28:53.702Z,20.80
2022-08-31T14:31:26.272Z,20.80
2022-08-31T14:34:15.607Z,20.80
2022-08-31T14:36:54.017Z,20.70
2022-08-31T14:39:24.992Z,20.50
2022-08-31T14:41:55.168Z,20.30
2022-08-31T14:44:27.053Z,20.20
2022-08-31T14:46:56.011Z,20.00
2022-08-31T14:49:25.139Z,19.90
2022-08-31T14:51:53.312Z,19.80
2022-08-31T14:54:22.148Z,19.70
2022-08-31T14:56:51.630Z,19.70
2022-08-31T14:59:21.864Z,19.70
2022-08-31T15:01:51.599Z,19.70
2022-08-31T15:04:21.362Z,19.60
2022-08-31T15:06:54.279Z,19.60
2022-08-31T15:09:22.987Z,19.50
2022-08-31T15:11:51.930Z,19.40
2022-08-31T15:14:20.307Z,19.40
2022-08-31T15:16:49.765Z,19.40
2022-08-31T15:19:19.489Z,19.40
2022-08-31T15:21:58.678Z,19.40
2022-08-31T15:24:32.113Z,19.30
2022-08-31T15:27:02.253Z,19.30
2022-08-31T15:29:31.369Z,19.30
2022-08-31T15:32:01.678Z,19.30
2022-08-31T15:34:31.879Z,19.20
2022-08-31T15:37:05.846Z,19.10
2022-08-31T15:39:43.794Z,19.10
2022-08-31T15:42:13.162Z,19.10
2022-08-31T15:44:43.515Z,19.10
2022-08-31T15:47:31.116Z,19.10
2022-08-31T15:50:00.662Z,19.10
2022-08-31T15:52:30.831Z,19.10
2022-08-31T15:54:59.760Z,19.10
2022-08-31T15:57:31.418Z,19.20
2022-08-31T16:00:00.263Z,19.20
2022-08-31T16:02:36.146Z,19.20
2022-08-31T16:05:05.849Z,19.30
2022-08-31T16:07:38.188Z,19.20
2022-08-31T16:10:16.709Z,19.20
2022-08-31T16:12:46.927Z,19.20
2022-08-31T16:15:19.695Z,19.20
2022-08-31T16:17:51.235Z,19.20
2022-08-31T16:20:20.403Z,19.20
2022-08-31T16:22:50.079Z,19.20
2022-08-31T16:25:20.505Z,19.10
2022-08-31T16:27:50.232Z,19.10
2022-08-31T16:30:18.902Z,19.00
2022-08-31T16:32:52.135Z,19.00
2022-08-31T16:35:21.112Z,18.90
2022-08-31T16:37:51.156Z,19.00
2022-08-31T16:40:20.678Z,19.00
2022-08-31T16:42:51.085Z,19.00
2022-08-31T16:45:23.841Z,18.90
2022-08-31T16:48:12.439Z,18.90
2022-08-31T16:50:47.514Z,18.80
2022-08-31T16:53:19.088Z,18.80
2022-08-31T16:55:48.236Z,18.70
2022-08-31T16:58:34.512Z,18.70
2022-08-31T17:01:13.820Z,18.60
2022-08-31T17:03:47.534Z,18.50
2022-08-31T17:06:17.069Z,18.40
2022-08-31T17:08:46.402Z,18.30
2022-08-31T17:11:25.858Z,18.20
2022-08-31T17:13:59.434Z,18.20
2022-08-31T17:16:32.116Z,18.10
2022-08-31T17:19:02.538Z,18.00
2022-08-31T17:21:32.141Z,17.90
2022-08-31T17:24:03.910Z,17.80
2022-08-31T17:26:35.128Z,17.80
2022-08-31T17:29:06.128Z,17.80
2022-08-31T17:31:43.444Z,17.70
2022-08-31T17:34:17.507Z,17.60
2022-08-31T17:36:47.687Z,17.60
2022-08-31T17:39:17.933Z,17.50
2022-08-31T17:41:46.744Z,17.40
2022-08-31T17:44:22.632Z,17.40
2022-08-31T17:46:54.367Z,17.30
2022-08-31T17:49:24.370Z,17.30
2022-08-31T17:51:53.648Z,17.20
2022-08-31T17:54:30.657Z,17.20
2022-08-31T17:57:00.893Z,17.20
2022-08-31T17:59:34.111Z,17.10
2022-08-31T18:02:11.198Z,17.00
2022-08-31T18:04:41.000Z,17.00
2022-08-31T18:07:10.928Z,17.00
2022-08-31T18:09:41.410Z,16.90
2022-08-31T18:12:10.266Z,16.80
2022-08-31T18:14:40.635Z,16.70
2022-08-31T18:17:11.439Z,16.70
2022-08-31T18:19:40.935Z,16.70
2022-08-31T18:22:09.553Z,16.60
2022-08-31T18:24:39.446Z,16.60
2022-08-31T18:27:10.340Z,16.50
2022-08-31T18:29:39.489Z,16.60
2022-08-31T18:32:08.676Z,16.50
2022-08-31T18:34:45.163Z,16.50
2022-08-31T18:37:16.953Z,16.50
2022-08-31T18:40:08.173Z,16.40
2022-08-31T18:42:58.455Z,16.40
2022-08-31T18:45:28.947Z,16.30
2022-08-31T18:48:34.931Z,16.20
2022-08-31T18:50:50.376Z,16.20
2022-08-31T18:53:28.818Z,16.10
2022-08-31T18:56:08.391Z,16.00
2022-08-31T18:58:42.776Z,16.00
2022-08-31T19:01:16.475Z,16.00
2022-08-31T19:03:46.991Z,15.90
2022-08-31T19:06:18.573Z,15.90
2022-08-31T19:08:49.096Z,15.80
2022-08-31T19:11:19.919Z,15.70
2022-08-31T19:13:51.337Z,15.70
2022-08-31T19:16:23.515Z,15.60
2022-08-31T19:18:56.296Z,15.60
2022-08-31T19:21:30.718Z,15.60
2022-08-31T19:24:00.954Z,15.60
2022-08-31T19:26:42.524Z,15.60
2022-08-31T19:29:14.907Z,15.50
2022-08-31T19:31:45.802Z,15.50
2022-08-31T19:34:17.315Z,15.50
2022-08-31T19:36:50.298Z,15.40
2022-08-31T19:39:25.752Z,15.40
2022-08-31T19:42:04.625Z,15.40
2022-08-31T19:47:26.271Z,15.30
2022-08-31T19:49:56.874Z,15.30
2022-08-31T19:52:27.642Z,15.20
2022-08-31T19:54:56.797Z,15.10
2022-08-31T19:57:25.336Z,15.00
2022-08-31T19:59:55.083Z,14.90
2022-08-31T20:02:24.644Z,14.80
2022-08-31T20:04:53.500Z,14.80
2022-08-31T20:07:24.272Z,14.70
2022-08-31T20:09:58.084Z,14.70
2022-08-31T20:12:26.880Z,14.60
2022-08-31T20:14:55.677Z,14.50
2022-08-31T20:17:25.090Z,14.50
2022-08-31T20:19:55.324Z,14.50
2022-08-31T20:22:28.057Z,14.40
2022-08-31T20:25:01.338Z,14.40
2022-08-31T20:27:31.314Z,14.40
2022-08-31T20:30:00.315Z,14.40
2022-08-31T20:32:29.642Z,14.40
2022-08-31T20:34:58.060Z,14.40
2022-08-31T20:37:26.802Z,14.30
2022-08-31T20:39:55.743Z,14.30
2022-08-31T20:42:26.266Z,14.20
2022-08-31T20:44:56.363Z,14.20
2022-08-31T20:47:43.316Z,14.20
2022-08-31T20:50:12.868Z,14.20
2022-08-31T20:52:41.909Z,14.20
2022-08-31T20:55:12.907Z,14.20
2022-08-31T20:57:42.029Z,14.10
2022-08-31T21:00:11.138Z,14.10
2022-08-31T21:02:43.564Z,14.10
2022-08-31T21:08:02.915Z,14.00
2022-08-31T21:10:36.660Z,13.90
2022-08-31T21:13:12.258Z,13.80
2022-08-31T21:15:42.972Z,13.80
2022-08-31T21:18:11.867Z,13.70
2022-08-31T21:20:41.078Z,13.60
2022-08-31T21:23:10.931Z,13.50
2022-08-31T21:25:46.554Z,13.50
2022-08-31T21:28:17.985Z,13.50
2022-08-31T21:30:50.076Z,13.40
2022-08-31T21:33:19.721Z,13.40
2022-08-31T21:35:48.583Z,13.50
2022-08-31T21:38:18.824Z,13.40
2022-08-31T21:40:51.777Z,13.40
2022-08-31T21:43:20.687Z,13.30
2022-08-31T21:45:59.884Z,13.30
2022-08-31T21:48:40.362Z,13.20
2022-08-31T21:51:18.048Z,13.20
2022-08-31T21:53:48.228Z,13.20
2022-08-31T21:56:17.509Z,13.20
2022-08-31T21:58:46.730Z,13.10
2022-08-31T22:01:18.883Z,13.10
2022-08-31T22:03:54.699Z,13.10
2022-08-31T22:06:31.376Z,13.10
2022-08-31T22:09:02.226Z,13.00
2022-08-31T22:11:31.880Z,13.00
2022-08-31T22:14:00.899Z,13.00
2022-08-31T22:16:29.491Z,12.90
2022-08-31T22:19:01.423Z,12.90
2022-08-31T22:21:34.643Z,12.90
2022-08-31T22:24:08.221Z,12.90
2022-08-31T22:26:39.066Z,12.90
2022-08-31T22:29:08.697Z,12.90
2022-08-31T22:31:38.434Z,12.90
2022-08-31T22:34:08.231Z,12.90
2022-08-31T22:36:37.482Z,12.90
2022-08-31T22:39:10.170Z,12.80
2022-08-31T22:41:40.663Z,12.80
2022-08-31T22:44:11.089Z,12.80
2022-08-31T22:46:40.349Z,12.80
2022-08-31T22:49:09.048Z,12.80
2022-08-31T22:51:38.634Z,12.80
2022-08-31T22:54:07.882Z,12.80
2022-08-31T22:56:38.320Z,12.80
2022-08-31T22:59:09.446Z,12.80
2022-08-31T23:01:48.124Z,12.80
2022-08-31T23:04:20.593Z,12.80
2022-08-31T23:06:50.238Z,12.80
2022-08-31T23:09:21.638Z,12.80
2022-08-31T23:11:53.628Z,12.70
2022-08-31T23:14:22.426Z,12.80
2022-08-31T23:16:59.871Z,12.70
2022-08-31T23:19:33.451Z,12.70
2022-08-31T23:22:02.336Z,12.80
2022-08-31T23:24:37.661Z,12.70
2022-08-31T23:27:09.800Z,12.70
2022-08-31T23:29:40.630Z,12.60
2022-08-31T23:32:14.049Z,12.60
2022-08-31T23:34:42.217Z,12.50
2022-08-31T23:37:11.476Z,12.50
2022-08-31T23:39:46.456Z,12.50
2022-08-31T23:42:16.757Z,12.50
2022-08-31T23:44:46.784Z,12.40
2022-08-31T23:47:17.833Z,12.40
2022-08-31T23:49:47.460Z,12.40
2022-08-31T23:52:19.708Z,12.40
2022-08-31T23:54:51.439Z,12.30
2022-08-31T23:57:32.055Z,12.30
